»·PEaware :: AAL100 KSEA-KRNO

AAL100 :: KSEA-KRNO

FLIGHT INFORMATION

Flight Status: Arrived
Operator:
American Airlines
More flights by this operator :: More flights under this callsign
Pilot: Max W. (2591)
Aircraft: BOEING 777-200
(B772)
More flights by this aircraft type
Origin: KSEA Seattle-Tacoma Intl
United States
Destination: KRNO Reno/Tahoe Intl
United States
More flights between these airports :: More routes between these airports
Route: SUMMA1 LKV HARTT HARTT1
File this flight plan on PilotEdge
Remarks:
Altitude:
(Current/Filed)
35,000ft
Speed:
(Current/Filed)
450kts
Departed: 05-Nov-18 05:55 PM
Arrived: 05-Nov-18 07:12 PM
Distance/Time
Traveled:
489nm/1:16
Distance/Time
To Go:
Arrived

Flight Plot

Page will automatically refresh every two minutes.


Map Options




Map Legend


Flown Route
Filed Route
Departure Airport
Arrival Airport
Navaid (VOR, NDB)
Fix

Horizontal Profiles

Position Reports

Time Latitude Longitude Heading Altitude Ground
Speed
05-Nov-18 17:50 47.441240 -122.304496 90 446ft 0kts
05-Nov-18 17:51 47.441240 -122.304496 90 446ft 0kts
05-Nov-18 17:52 47.441240 -122.304496 90 446ft 0kts
05-Nov-18 17:53 47.441240 -122.304546 90 446ft 1kts
05-Nov-18 17:54 47.441245 -122.305661 90 446ft 1kts
05-Nov-18 17:55 47.441245 -122.305664 90 446ft 0kts
05-Nov-18 17:56 47.441245 -122.305663 90 446ft 0kts
05-Nov-18 17:57 47.441243 -122.305639 94 446ft 1kts
05-Nov-18 17:58 47.444484 -122.306333 1 446ft 43kts
05-Nov-18 17:59 47.454238 -122.306219 358 446ft 25kts
05-Nov-18 18:00 47.460883 -122.306164 1 446ft 32kts
05-Nov-18 18:01 47.463686 -122.309333 268 446ft 0kts
05-Nov-18 18:02 47.463686 -122.309334 268 446ft 0kts
05-Nov-18 18:03 47.460013 -122.311033 181 447ft 92kts
05-Nov-18 18:04 47.411024 -122.310379 181 3550ft 205kts
05-Nov-18 18:05 47.339980 -122.310293 183 7592ft 273kts
05-Nov-18 18:06 47.257969 -122.310143 184 11979ft 326kts
05-Nov-18 18:07 47.162090 -122.259391 158 15511ft 401kts
05-Nov-18 18:08 47.051689 -122.202062 165 19361ft 442kts
05-Nov-18 18:08 46.950194 -122.152283 166 22068ft 481kts
05-Nov-18 18:10 46.794798 -122.075002 169 25737ft 527kts
05-Nov-18 18:11 46.650949 -122.004499 170 28806ft 559kts
05-Nov-18 18:11 46.526142 -121.950362 175 31590ft 559kts
05-Nov-18 18:13 46.351383 -121.885995 175 35088ft 558kts
05-Nov-18 18:14 46.227236 -121.838647 175 35149ft 553kts
05-Nov-18 18:15 46.051379 -121.771675 175 35171ft 563kts
05-Nov-18 18:16 45.924718 -121.723832 175 35168ft 563kts
05-Nov-18 18:17 45.773373 -121.666972 175 35165ft 563kts
05-Nov-18 18:18 45.622215 -121.610503 176 35162ft 561kts
05-Nov-18 18:19 45.471045 -121.554340 176 35167ft 560kts
05-Nov-18 18:20 45.320785 -121.498827 176 35169ft 557kts
05-Nov-18 18:21 45.171089 -121.443819 176 35170ft 556kts
05-Nov-18 18:22 45.021496 -121.389149 176 35171ft 553kts
05-Nov-18 18:23 44.872774 -121.335087 176 35170ft 551kts
05-Nov-18 18:24 44.724584 -121.281507 176 35165ft 550kts
05-Nov-18 18:25 44.576233 -121.228152 176 35159ft 547kts
05-Nov-18 18:26 44.428802 -121.175405 176 35153ft 547kts
05-Nov-18 18:27 44.280992 -121.122797 176 35149ft 547kts
05-Nov-18 18:28 44.133836 -121.070692 176 35154ft 545kts
05-Nov-18 18:29 43.987001 -121.018969 176 35160ft 545kts
05-Nov-18 18:30 43.840429 -120.967602 176 35159ft 541kts
05-Nov-18 18:31 43.694709 -120.916786 176 35160ft 539kts
05-Nov-18 18:32 43.549462 -120.866392 176 35161ft 538kts
05-Nov-18 18:33 43.403858 -120.816123 176 35162ft 538kts
05-Nov-18 18:34 43.258785 -120.766285 176 35164ft 537kts
05-Nov-18 18:35 43.113883 -120.716749 176 35166ft 537kts
05-Nov-18 18:36 42.968723 -120.667365 176 35168ft 536kts
05-Nov-18 18:37 42.824312 -120.618470 176 35169ft 534kts
05-Nov-18 18:38 42.680489 -120.569881 175 35169ft 532kts
05-Nov-18 18:39 42.536386 -120.521659 175 35166ft 532kts
05-Nov-18 18:40 42.392876 -120.476788 177 35167ft 529kts
05-Nov-18 18:41 42.248953 -120.434163 177 35169ft 527kts
05-Nov-18 18:42 42.106006 -120.391543 177 35169ft 527kts
05-Nov-18 18:43 41.962982 -120.349006 176 35166ft 527kts
05-Nov-18 18:44 41.819732 -120.306685 176 35164ft 526kts
05-Nov-18 18:45 41.677052 -120.264744 176 35161ft 525kts
05-Nov-18 18:46 41.534449 -120.223016 176 35160ft 525kts
05-Nov-18 18:47 41.391432 -120.181355 176 35156ft 524kts
05-Nov-18 18:48 41.251025 -120.140634 176 35152ft 512kts
05-Nov-18 18:49 41.111988 -120.100384 176 35146ft 511kts
05-Nov-18 18:50 40.972693 -120.060369 175 35139ft 510kts
05-Nov-18 18:51 40.834123 -120.020746 175 35131ft 510kts
05-Nov-18 18:52 40.695695 -119.975924 173 35126ft 512kts
05-Nov-18 18:53 40.557710 -119.931467 173 35129ft 510kts
05-Nov-18 18:54 40.419441 -119.887214 173 35125ft 510kts
05-Nov-18 18:55 40.281914 -119.843206 173 35124ft 509kts
05-Nov-18 18:56 40.155693 -119.758597 141 33711ft 511kts
05-Nov-18 18:57 40.084172 -119.602648 103 29419ft 497kts
05-Nov-18 18:58 40.096132 -119.429678 50 23034ft 468kts
05-Nov-18 18:59 40.194697 -119.368667 340 17790ft 365kts
05-Nov-18 19:00 40.269722 -119.448812 313 13128ft 363kts
05-Nov-18 19:01 40.334726 -119.543943 299 12323ft 345kts
05-Nov-18 19:02 40.311522 -119.661747 220 12020ft 382kts
05-Nov-18 19:03 40.218843 -119.703487 199 12021ft 319kts
05-Nov-18 19:04 40.135143 -119.734314 198 12039ft 308kts
05-Nov-18 19:05 40.055318 -119.762828 196 12007ft 294kts
05-Nov-18 19:06 39.972967 -119.768478 182 12010ft 295kts
05-Nov-18 19:07 39.894734 -119.768410 183 12000ft 253kts
05-Nov-18 19:08 39.831252 -119.768451 183 11560ft 223kts
05-Nov-18 19:09 39.765354 -119.768600 181 9465ft 229kts
05-Nov-18 19:10 39.708182 -119.768738 180 8357ft 184kts
05-Nov-18 19:11 39.657386 -119.768865 181 7347ft 180kts
05-Nov-18 19:12 39.608811 -119.768986 181 6371ft 161kts
05-Nov-18 19:13 39.565502 -119.769095 180 5532ft 154kts
05-Nov-18 19:14 39.522318 -119.769140 179 4656ft 176kts
05-Nov-18 19:15 39.498049 -119.771563 335 4428ft 15kts
05-Nov-18 19:16 39.506604 -119.773881 330 4428ft 12kts

Navigation Log

Ident Type
Flight plan parsing failed, navigation log unavailable